createdAt,value
2019-02-23T00:01:07.081Z,4.71
2019-02-23T00:06:15.134Z,4.76
2019-02-23T00:11:23.406Z,5.53
2019-02-23T00:16:31.558Z,4.91
2019-02-23T00:21:39.819Z,5.04
2019-02-23T00:26:47.997Z,5.59
2019-02-23T00:31:56.269Z,5.18
2019-02-23T00:37:04.477Z,4.87
2019-02-23T00:42:12.705Z,5.48
2019-02-23T00:47:20.865Z,5.11
2019-02-23T00:52:29.070Z,5.27
2019-02-23T00:57:37.283Z,5.25
2019-02-23T01:02:45.726Z,5.03
2019-02-23T01:07:54.010Z,4.95
2019-02-23T01:13:02.131Z,5.28
2019-02-23T01:18:10.722Z,5.39
2019-02-23T01:23:19.022Z,5.38
2019-02-23T01:28:27.316Z,5.36
2019-02-23T01:33:35.473Z,5.42
2019-02-23T01:38:44.153Z,5.23
2019-02-23T01:43:52.400Z,5.32
2019-02-23T01:49:00.538Z,5.39
2019-02-23T01:54:08.873Z,5.68
2019-02-23T01:59:16.969Z,5.21
2019-02-23T02:04:25.120Z,5.37
2019-02-23T02:09:33.257Z,5.53
2019-02-23T02:14:41.730Z,5.95
2019-02-23T02:19:50.109Z,5.63
2019-02-23T02:24:58.319Z,5.81
2019-02-23T02:30:06.486Z,6.00
2019-02-23T02:35:14.758Z,6.19
2019-02-23T02:40:22.958Z,6.19
2019-02-23T02:45:31.213Z,5.97
2019-02-23T02:50:39.397Z,5.93
2019-02-23T02:55:47.583Z,5.62
2019-02-23T03:00:55.708Z,6.36
2019-02-23T03:06:04.100Z,5.90
2019-02-23T03:11:12.125Z,6.30
2019-02-23T03:16:20.704Z,6.48
2019-02-23T03:21:28.855Z,6.84
2019-02-23T03:26:37.028Z,6.79
2019-02-23T03:31:45.242Z,6.65
2019-02-23T03:36:53.555Z,7.11
2019-02-23T03:42:01.962Z,6.94
2019-02-23T03:47:10.202Z,6.84
2019-02-23T03:52:18.490Z,7.23
2019-02-23T03:57:26.789Z,6.81
2019-02-23T04:02:34.992Z,6.23
2019-02-23T04:07:43.590Z,6.39
2019-02-23T04:12:51.765Z,6.15
2019-02-23T04:17:59.945Z,6.08
2019-02-23T04:23:08.204Z,5.96
2019-02-23T04:28:16.336Z,5.86
2019-02-23T04:33:24.548Z,5.75
2019-02-23T04:38:32.680Z,6.03
2019-02-23T04:43:43.910Z,6.25
2019-02-23T04:48:48.245Z,5.84
2019-02-23T04:53:56.521Z,5.86
2019-02-23T04:59:04.638Z,5.70
2019-02-23T05:04:12.758Z,6.19
2019-02-23T05:09:20.973Z,6.38
2019-02-23T05:14:29.109Z,5.96
2019-02-23T05:19:37.281Z,5.69
2019-02-23T05:24:45.524Z,6.42
2019-02-23T05:29:53.755Z,6.36
2019-02-23T05:35:01.846Z,6.44
2019-02-23T05:40:10.071Z,6.65
2019-02-23T05:45:18.339Z,6.91
2019-02-23T05:50:26.513Z,6.92
2019-02-23T05:55:34.647Z,6.40
2019-02-23T06:00:42.906Z,6.40
2019-02-23T06:05:51.106Z,6.03
2019-02-23T06:10:59.376Z,6.12
2019-02-23T06:16:08.202Z,6.03
2019-02-23T06:21:16.427Z,6.55
2019-02-23T06:26:24.609Z,6.81
2019-02-23T06:31:32.953Z,6.38
2019-02-23T06:36:41.049Z,6.38
2019-02-23T06:41:49.271Z,6.64
2019-02-23T06:46:57.630Z,6.76
2019-02-23T06:52:05.914Z,6.87
2019-02-23T06:57:14.257Z,6.96
2019-02-23T07:02:22.467Z,7.30
2019-02-23T07:07:30.862Z,7.79
2019-02-23T07:12:39.117Z,7.20
2019-02-23T07:17:47.340Z,7.49
2019-02-23T07:22:55.570Z,7.48
2019-02-23T07:28:03.754Z,7.88
2019-02-23T07:33:11.993Z,7.54
2019-02-23T07:38:20.128Z,7.47
2019-02-23T07:43:28.346Z,7.56
2019-02-23T07:48:36.525Z,7.81
2019-02-23T07:53:44.927Z,7.88
2019-02-23T07:58:52.917Z,7.84
2019-02-23T08:04:01.527Z,7.52
2019-02-23T08:09:09.797Z,7.55
2019-02-23T08:14:18.123Z,7.86
2019-02-23T08:19:26.324Z,8.02
2019-02-23T08:24:34.605Z,7.92
2019-02-23T08:29:42.666Z,9.51
2019-02-23T08:34:50.921Z,10.82
2019-02-23T08:39:59.270Z,10.90
2019-02-23T08:45:07.567Z,11.71
2019-02-23T08:50:15.841Z,10.29
2019-02-23T08:55:23.974Z,10.05
2019-02-23T09:00:32.437Z,9.35
2019-02-23T09:05:41.379Z,9.34
2019-02-23T09:10:50.043Z,9.46
2019-02-23T09:15:58.898Z,8.03
2019-02-23T09:21:07.385Z,8.07
2019-02-23T09:26:16.037Z,7.79
2019-02-23T09:31:24.185Z,7.40
2019-02-23T09:36:33.050Z,7.84
2019-02-23T09:41:41.176Z,8.01
2019-02-23T09:46:49.447Z,8.33
2019-02-23T09:51:57.586Z,9.26
2019-02-23T09:57:06.201Z,8.26
2019-02-23T10:02:14.349Z,8.74
2019-02-23T10:07:22.647Z,7.49
2019-02-23T10:12:30.912Z,7.04
2019-02-23T10:17:39.109Z,7.09
2019-02-23T10:22:47.495Z,7.22
2019-02-23T10:27:59.112Z,6.93
2019-02-23T10:33:04.046Z,7.05
2019-02-23T10:38:12.574Z,6.91
2019-02-23T10:43:20.892Z,6.86
2019-02-23T10:48:29.265Z,6.82
2019-02-23T10:53:37.487Z,7.19
2019-02-23T10:58:45.753Z,7.10
2019-02-23T11:03:53.915Z,7.18
2019-02-23T11:09:02.170Z,7.20
2019-02-23T11:14:10.323Z,6.92
2019-02-23T11:19:18.638Z,7.12
2019-02-23T11:24:26.837Z,7.29
2019-02-23T11:29:35.083Z,6.78
2019-02-23T11:34:43.301Z,6.70
2019-02-23T11:39:51.584Z,6.80
2019-02-23T11:44:59.739Z,6.60
2019-02-23T11:50:07.966Z,6.48
2019-02-23T11:55:16.941Z,6.87
2019-02-23T12:00:25.268Z,6.40
2019-02-23T12:05:33.569Z,6.64
2019-02-23T12:10:42.021Z,6.90
2019-02-23T12:15:50.450Z,6.61
2019-02-23T12:20:58.744Z,6.93
2019-02-23T12:26:06.941Z,6.78
2019-02-23T12:31:15.381Z,6.76
2019-02-23T12:36:23.614Z,6.34
2019-02-23T12:41:31.954Z,6.54
2019-02-23T12:46:40.415Z,6.76
2019-02-23T12:51:48.776Z,6.72
2019-02-23T12:56:57.492Z,6.81
2019-02-23T13:02:05.792Z,7.12
2019-02-23T13:07:13.939Z,6.75
2019-02-23T13:12:22.357Z,6.99
2019-02-23T13:17:30.833Z,7.08
2019-02-23T13:22:39.185Z,6.95
2019-02-23T13:27:47.449Z,7.07
2019-02-23T13:32:55.629Z,6.78
2019-02-23T13:38:03.789Z,7.47
2019-02-23T13:43:11.972Z,6.97
2019-02-23T13:48:21.266Z,7.58
2019-02-23T13:53:27.894Z,7.35
2019-02-23T13:58:36.176Z,7.49
2019-02-23T14:03:44.658Z,7.95
2019-02-23T14:08:52.753Z,8.06
2019-02-23T14:14:01.019Z,7.95
2019-02-23T14:19:09.227Z,7.68
2019-02-23T14:24:17.493Z,8.01
2019-02-23T14:29:25.566Z,8.07
2019-02-23T14:34:33.870Z,7.96
2019-02-23T14:39:42.029Z,8.14
2019-02-23T14:44:50.114Z,7.50
2019-02-23T14:49:58.308Z,8.11
2019-02-23T14:55:06.605Z,7.54
2019-02-23T15:00:14.799Z,7.88
2019-02-23T15:05:23.073Z,8.23
2019-02-23T15:10:31.494Z,8.11
2019-02-23T15:15:40.146Z,7.48
2019-02-23T15:20:48.371Z,8.28
2019-02-23T15:25:57.670Z,7.73
2019-02-23T15:31:06.029Z,7.95
2019-02-23T15:36:08.529Z,7.79
2019-02-23T15:41:19.328Z,7.55
2019-02-23T15:46:18.348Z,7.44
2019-02-23T15:51:20.526Z,7.56
2019-02-23T15:56:23.077Z,7.81
2019-02-23T16:01:28.427Z,7.85
2019-02-23T16:06:36.628Z,8.20
2019-02-23T16:11:45.354Z,8.17
2019-02-23T16:16:53.678Z,8.07
2019-02-23T16:22:01.843Z,8.17
2019-02-23T16:27:20.307Z,8.55
2019-02-23T16:32:19.565Z,8.18
2019-02-23T16:37:28.487Z,8.41
2019-02-23T16:42:37.270Z,8.26
2019-02-23T16:47:45.904Z,8.08
2019-02-23T16:52:54.246Z,8.52
2019-02-23T16:58:02.534Z,8.54
2019-02-23T17:03:10.959Z,8.51
2019-02-23T17:08:19.141Z,8.42
2019-02-23T17:13:27.329Z,9.05
2019-02-23T17:18:35.558Z,8.62
2019-02-23T17:23:43.866Z,9.44
2019-02-23T17:28:52.434Z,9.75
2019-02-23T17:34:00.617Z,10.19
2019-02-23T17:39:08.939Z,10.41
2019-02-23T17:44:17.348Z,9.47
2019-02-23T17:49:25.562Z,9.65
2019-02-23T17:54:33.889Z,9.76
2019-02-23T17:59:42.224Z,10.68
2019-02-23T18:04:50.466Z,12.03
2019-02-23T18:09:58.626Z,10.89
2019-02-23T18:15:06.753Z,9.76
2019-02-23T18:20:15.174Z,9.47
2019-02-23T18:25:23.525Z,9.19
2019-02-23T18:30:31.832Z,9.17
2019-02-23T18:35:40.074Z,9.32
2019-02-23T18:40:48.327Z,9.04
2019-02-23T18:45:56.510Z,9.37
2019-02-23T18:51:04.901Z,9.53
2019-02-23T18:56:13.425Z,9.18
2019-02-23T19:01:21.689Z,9.32
2019-02-23T19:06:29.753Z,9.15
2019-02-23T19:11:38.167Z,9.24
2019-02-23T19:16:46.764Z,9.91
2019-02-23T19:21:55.144Z,9.67
2019-02-23T19:27:03.505Z,9.14
2019-02-23T19:32:11.690Z,9.23
2019-02-23T19:37:20.451Z,8.94
2019-02-23T19:42:29.079Z,10.48
2019-02-23T19:47:37.151Z,10.45
2019-02-23T19:52:45.301Z,10.89
2019-02-23T19:57:53.576Z,10.76
2019-02-23T20:03:01.837Z,10.59
2019-02-23T20:08:10.010Z,10.60
2019-02-23T20:13:22.630Z,10.21
2019-02-23T20:18:21.330Z,10.99
2019-02-23T20:23:30.296Z,10.85
2019-02-23T20:28:38.861Z,10.33
2019-02-23T20:33:49.796Z,10.23
2019-02-23T20:38:48.155Z,10.37
2019-02-23T20:43:56.522Z,9.70
2019-02-23T20:48:59.612Z,10.84
2019-02-23T20:53:58.355Z,11.32
2019-02-23T20:59:07.886Z,9.88
2019-02-23T21:04:16.458Z,9.27
2019-02-23T21:09:27.171Z,10.03
2019-02-23T21:14:25.909Z,9.33
2019-02-23T21:19:39.250Z,10.42
2019-02-23T21:24:38.054Z,11.56
2019-02-23T21:29:53.784Z,10.27
2019-02-23T21:34:52.265Z,9.19
2019-02-23T21:40:00.670Z,9.66
2019-02-23T21:45:09.225Z,9.17
2019-02-23T21:50:10.202Z,9.61
2019-02-23T21:55:18.402Z,10.13
2019-02-23T22:00:27.486Z,10.22
2019-02-23T22:05:36.213Z,10.66
2019-02-23T22:10:37.400Z,10.42
2019-02-23T22:15:46.314Z,10.39
2019-02-23T22:20:54.583Z,10.16
2019-02-23T22:26:03.024Z,9.75
2019-02-23T22:31:11.578Z,9.90
2019-02-23T22:36:18.146Z,10.20
2019-02-23T22:41:26.579Z,10.11
2019-02-23T22:46:36.342Z,10.04
2019-02-23T22:51:44.760Z,10.71
2019-02-23T22:56:53.139Z,10.25
2019-02-23T23:02:01.845Z,11.35
2019-02-23T23:07:12.252Z,10.90
2019-02-23T23:12:10.788Z,10.73
2019-02-23T23:17:21.365Z,10.79
2019-02-23T23:22:20.363Z,10.72
2019-02-23T23:27:28.809Z,11.49
2019-02-23T23:32:37.229Z,11.12
2019-02-23T23:37:45.597Z,11.61
2019-02-23T23:42:58.136Z,11.40
2019-02-23T23:48:02.512Z,12.04
2019-02-23T23:53:10.785Z,12.47
2019-02-23T23:58:19.112Z,12.51
